createdAt,value
2019-03-06T00:00:43.411Z,5.44
2019-03-06T00:03:16.341Z,5.40
2019-03-06T00:05:48.101Z,5.36
2019-03-06T00:08:19.389Z,5.40
2019-03-06T00:10:50.534Z,5.41
2019-03-06T00:13:21.757Z,5.48
2019-03-06T00:15:53.029Z,5.47
2019-03-06T00:18:28.164Z,5.48
2019-03-06T00:20:59.438Z,5.49
2019-03-06T00:23:30.529Z,5.47
2019-03-06T00:26:02.245Z,5.43
2019-03-06T00:28:35.675Z,5.48
2019-03-06T00:31:06.794Z,5.49
2019-03-06T00:33:37.987Z,5.46
2019-03-06T00:36:11.227Z,5.36
2019-03-06T00:38:42.575Z,5.30
2019-03-06T00:41:31.325Z,5.26
2019-03-06T00:44:03.968Z,5.26
2019-03-06T00:46:35.205Z,5.25
2019-03-06T00:49:06.287Z,5.25
2019-03-06T00:51:37.368Z,5.23
2019-03-06T00:54:08.437Z,5.29
2019-03-06T00:56:39.604Z,5.29
2019-03-06T00:59:10.647Z,5.26
2019-03-06T01:01:41.724Z,5.29
2019-03-06T01:04:12.897Z,5.31
2019-03-06T01:06:44.130Z,5.32
2019-03-06T01:09:15.393Z,5.36
2019-03-06T01:11:46.685Z,5.33
2019-03-06T01:14:17.776Z,5.32
2019-03-06T01:16:48.951Z,5.29
2019-03-06T01:19:27.885Z,5.30
2019-03-06T01:21:59.081Z,5.29
2019-03-06T01:24:30.204Z,5.21
2019-03-06T01:27:01.415Z,5.13
2019-03-06T01:29:32.595Z,5.06
2019-03-06T01:32:03.831Z,5.01
2019-03-06T01:34:48.698Z,5.03
2019-03-06T01:37:24.353Z,5.01
2019-03-06T01:39:57.053Z,4.94
2019-03-06T01:42:29.881Z,4.96
2019-03-06T01:45:00.926Z,4.96
2019-03-06T01:47:33.352Z,4.91
2019-03-06T01:50:06.792Z,4.91
2019-03-06T01:52:37.827Z,4.91
2019-03-06T01:55:14.782Z,4.92
2019-03-06T01:57:45.927Z,4.94
2019-03-06T02:00:17.777Z,4.94
2019-03-06T02:02:49.092Z,4.94
2019-03-06T02:05:20.233Z,4.97
2019-03-06T02:07:53.371Z,5.06
2019-03-06T02:10:24.675Z,5.02
2019-03-06T02:12:55.894Z,5.04
2019-03-06T02:15:27.114Z,5.05
2019-03-06T02:17:58.353Z,5.04
2019-03-06T02:20:29.589Z,5.08
2019-03-06T02:23:00.803Z,5.15
2019-03-06T02:25:32.284Z,5.20
2019-03-06T02:28:05.610Z,5.18
2019-03-06T02:30:36.718Z,5.15
2019-03-06T02:33:07.810Z,5.19
2019-03-06T02:35:39.292Z,5.20
2019-03-06T02:38:11.755Z,5.23
2019-03-06T02:40:42.962Z,5.25
2019-03-06T02:43:14.212Z,5.22
2019-03-06T02:45:45.314Z,5.24
2019-03-06T02:48:16.417Z,5.21
2019-03-06T02:50:47.544Z,5.22
2019-03-06T02:53:18.752Z,5.20
2019-03-06T02:55:49.844Z,5.13
2019-03-06T02:58:22.826Z,5.12
2019-03-06T03:00:58.327Z,5.14
2019-03-06T03:03:31.273Z,5.12
2019-03-06T03:06:04.052Z,5.17
2019-03-06T03:08:36.465Z,5.13
2019-03-06T03:11:07.608Z,5.13
2019-03-06T03:13:38.803Z,5.17
2019-03-06T03:16:09.829Z,5.20
2019-03-06T03:18:41.292Z,5.20
2019-03-06T03:21:13.115Z,5.18
2019-03-06T03:23:44.293Z,5.15
2019-03-06T03:26:15.371Z,5.17
2019-03-06T03:28:46.517Z,5.16
2019-03-06T03:31:19.265Z,5.13
2019-03-06T03:33:50.402Z,5.05
2019-03-06T03:36:21.661Z,4.99
2019-03-06T03:38:53.574Z,4.96
2019-03-06T03:41:24.866Z,4.87
2019-03-06T03:43:56.068Z,4.81
2019-03-06T03:46:27.362Z,4.76
2019-03-06T03:49:00.694Z,4.71
2019-03-06T03:51:32.016Z,4.72
2019-03-06T03:54:03.223Z,4.70
2019-03-06T03:56:34.234Z,4.68
2019-03-06T03:59:05.404Z,4.64
2019-03-06T04:01:36.569Z,4.62
2019-03-06T04:04:07.822Z,4.60
2019-03-06T04:06:38.892Z,4.59
2019-03-06T04:09:10.154Z,4.43
2019-03-06T04:11:41.400Z,4.36
2019-03-06T04:14:14.161Z,4.31
2019-03-06T04:16:47.040Z,4.30
2019-03-06T04:19:18.269Z,4.31
2019-03-06T04:21:49.785Z,4.29
2019-03-06T04:24:21.043Z,4.25
2019-03-06T04:26:52.048Z,4.23
2019-03-06T04:29:23.302Z,4.22
2019-03-06T04:31:54.367Z,4.27
2019-03-06T04:34:25.535Z,4.25
2019-03-06T04:36:56.946Z,4.30
2019-03-06T04:39:28.231Z,4.37
2019-03-06T04:42:00.188Z,4.42
2019-03-06T04:44:31.442Z,4.48
2019-03-06T04:47:02.456Z,4.55
2019-03-06T04:49:34.956Z,4.56
2019-03-06T04:52:06.394Z,4.59
2019-03-06T04:54:37.549Z,4.59
2019-03-06T04:57:08.878Z,4.55
2019-03-06T04:59:41.250Z,4.60
2019-03-06T05:02:12.327Z,4.58
2019-03-06T05:04:43.483Z,4.58
2019-03-06T05:07:14.796Z,4.62
2019-03-06T05:09:46.210Z,4.66
2019-03-06T05:12:17.303Z,4.65
2019-03-06T05:14:48.829Z,4.63
2019-03-06T05:17:30.479Z,4.67
2019-03-06T05:20:01.743Z,4.68
2019-03-06T05:22:33.209Z,4.71
2019-03-06T05:25:06.294Z,4.74
2019-03-06T05:27:37.490Z,4.76
2019-03-06T05:30:13.976Z,4.79
2019-03-06T05:32:50.841Z,4.87
2019-03-06T05:35:37.160Z,4.94
2019-03-06T05:38:11.505Z,4.97
2019-03-06T05:40:43.565Z,5.05
2019-03-06T05:43:14.971Z,5.11
2019-03-06T05:45:46.142Z,5.13
2019-03-06T05:48:17.348Z,5.19
2019-03-06T05:50:48.627Z,5.25
2019-03-06T05:53:20.237Z,5.29
2019-03-06T05:55:51.480Z,5.30
2019-03-06T05:58:22.655Z,5.36
2019-03-06T06:00:54.639Z,5.41
2019-03-06T06:03:27.538Z,5.49
2019-03-06T06:05:58.685Z,5.58
2019-03-06T06:08:29.921Z,5.69
2019-03-06T06:11:02.137Z,5.78
2019-03-06T06:13:34.759Z,5.88
2019-03-06T06:16:06.071Z,5.95
2019-03-06T06:18:38.949Z,6.02
2019-03-06T06:21:23.752Z,6.11
2019-03-06T06:24:00.239Z,6.24
2019-03-06T06:26:31.863Z,6.29
2019-03-06T06:29:05.091Z,6.39
2019-03-06T06:31:38.917Z,6.47
2019-03-06T06:34:14.959Z,6.58
2019-03-06T06:36:46.326Z,6.67
2019-03-06T06:39:17.621Z,6.74
2019-03-06T06:41:48.740Z,6.86
2019-03-06T06:44:19.910Z,6.95
2019-03-06T06:46:54.391Z,6.95
2019-03-06T06:49:25.593Z,7.01
2019-03-06T06:52:18.321Z,7.05
2019-03-06T06:55:14.270Z,7.09
2019-03-06T06:58:00.758Z,7.15
2019-03-06T07:00:52.338Z,7.07
2019-03-06T07:03:28.381Z,7.06
2019-03-06T07:06:01.202Z,7.11
2019-03-06T07:08:37.878Z,7.13
2019-03-06T07:11:13.868Z,7.13
2019-03-06T07:13:47.112Z,7.20
2019-03-06T07:16:25.808Z,7.24
2019-03-06T07:19:04.651Z,7.34
2019-03-06T07:21:48.559Z,7.39
2019-03-06T07:24:27.382Z,7.50
2019-03-06T07:27:22.300Z,7.55
2019-03-06T07:30:13.244Z,7.63
2019-03-06T07:32:50.335Z,7.70
2019-03-06T07:36:05.784Z,7.83
2019-03-06T07:38:37.073Z,7.87
2019-03-06T07:41:26.585Z,7.85
2019-03-06T07:43:59.409Z,7.90
2019-03-06T07:46:35.153Z,7.97
2019-03-06T07:49:19.883Z,7.94
2019-03-06T07:52:09.118Z,7.97
2019-03-06T07:54:42.032Z,8.01
2019-03-06T07:57:14.916Z,8.11
2019-03-06T07:59:46.463Z,8.23
2019-03-06T08:02:25.292Z,8.38
2019-03-06T08:04:58.099Z,8.47
2019-03-06T08:07:29.607Z,8.57
2019-03-06T08:10:00.860Z,8.67
2019-03-06T08:12:36.022Z,8.54
2019-03-06T08:15:16.905Z,8.70
2019-03-06T08:17:49.778Z,8.79
2019-03-06T08:20:22.641Z,8.78
2019-03-06T08:23:12.061Z,8.74
2019-03-06T08:25:48.428Z,8.86
2019-03-06T08:28:19.995Z,8.89
2019-03-06T08:30:52.775Z,8.87
2019-03-06T08:33:24.021Z,8.95
2019-03-06T08:35:55.637Z,8.94
2019-03-06T08:38:26.814Z,9.04
2019-03-06T08:41:04.319Z,9.15
2019-03-06T08:43:32.244Z,9.28
2019-03-06T08:46:07.929Z,9.28
2019-03-06T08:48:46.842Z,9.30
2019-03-06T08:51:25.918Z,9.47
2019-03-06T08:53:58.724Z,9.43
2019-03-06T08:56:35.540Z,9.53
2019-03-06T08:59:20.478Z,9.55
2019-03-06T09:02:00.490Z,9.68
2019-03-06T09:04:34.056Z,9.73
2019-03-06T09:07:18.945Z,9.87
2019-03-06T09:10:10.965Z,10.03
2019-03-06T09:12:49.555Z,10.03
2019-03-06T09:15:23.869Z,9.95
2019-03-06T09:18:21.840Z,10.07
2019-03-06T09:20:58.952Z,10.13
2019-03-06T09:23:40.983Z,10.21
2019-03-06T09:26:30.282Z,10.29
2019-03-06T09:29:11.117Z,10.26
2019-03-06T09:31:44.104Z,10.43
2019-03-06T09:34:25.847Z,10.52
2019-03-06T09:37:04.751Z,10.66
2019-03-06T09:39:37.684Z,10.63
2019-03-06T09:42:15.321Z,10.57
2019-03-06T09:44:57.133Z,10.59
2019-03-06T09:47:30.436Z,10.47
2019-03-06T09:50:03.667Z,10.59
2019-03-06T09:52:48.608Z,10.49
2019-03-06T09:55:33.538Z,10.49
2019-03-06T09:58:08.025Z,10.73
2019-03-06T10:00:53.379Z,10.86
2019-03-06T10:03:37.270Z,10.94
2019-03-06T10:06:13.994Z,11.08
2019-03-06T10:08:47.199Z,10.93
2019-03-06T10:11:20.614Z,10.85
2019-03-06T10:13:56.133Z,10.80
2019-03-06T10:16:48.753Z,10.95
2019-03-06T10:19:18.802Z,11.02
2019-03-06T10:21:50.080Z,11.02
2019-03-06T10:24:22.957Z,10.65
2019-03-06T10:26:54.959Z,10.54
2019-03-06T10:29:26.983Z,10.57
2019-03-06T10:31:58.240Z,10.68
2019-03-06T10:34:30.696Z,10.77
2019-03-06T10:37:02.251Z,10.91
2019-03-06T10:39:33.825Z,10.89
2019-03-06T10:42:05.141Z,10.81
2019-03-06T10:44:38.490Z,10.74
2019-03-06T10:47:09.838Z,10.93
2019-03-06T10:49:41.474Z,10.91
2019-03-06T10:52:12.750Z,10.94
2019-03-06T10:54:44.879Z,11.16
2019-03-06T10:57:16.451Z,11.25
2019-03-06T10:59:47.698Z,11.15
2019-03-06T11:02:19.147Z,11.12
2019-03-06T11:04:52.181Z,11.01
2019-03-06T11:07:23.326Z,10.96
2019-03-06T11:09:54.651Z,10.87
2019-03-06T11:12:25.844Z,11.02
2019-03-06T11:14:57.207Z,11.09
2019-03-06T11:17:28.565Z,11.02
2019-03-06T11:20:00.324Z,11.14
2019-03-06T11:22:31.607Z,11.23
2019-03-06T11:25:02.946Z,11.10
2019-03-06T11:27:35.371Z,11.19
2019-03-06T11:30:12.696Z,11.15
2019-03-06T11:32:44.089Z,11.02
2019-03-06T11:35:18.455Z,11.02
2019-03-06T11:37:51.314Z,11.02
2019-03-06T11:40:22.650Z,11.05
2019-03-06T11:42:53.940Z,10.98
2019-03-06T11:45:25.648Z,11.02
2019-03-06T11:47:57.075Z,11.07
2019-03-06T11:50:40.391Z,11.05
2019-03-06T11:53:06.204Z,11.12
2019-03-06T11:55:38.063Z,11.16
2019-03-06T11:58:16.992Z,11.20
2019-03-06T12:00:52.828Z,11.30
2019-03-06T12:03:24.988Z,11.35
2019-03-06T12:05:57.772Z,11.30
2019-03-06T12:08:29.053Z,11.47
2019-03-06T12:11:00.776Z,11.35
2019-03-06T12:13:40.443Z,11.27
2019-03-06T12:16:16.804Z,11.36
2019-03-06T12:18:58.682Z,11.48
2019-03-06T12:21:31.461Z,11.42
2019-03-06T12:24:04.814Z,11.56
2019-03-06T12:26:36.753Z,11.35
2019-03-06T12:29:09.524Z,11.54
2019-03-06T12:31:40.822Z,11.56
2019-03-06T12:34:12.126Z,11.56
2019-03-06T12:36:45.470Z,11.50
2019-03-06T12:39:18.354Z,11.48
2019-03-06T12:41:49.998Z,11.55
2019-03-06T12:44:22.272Z,11.57
2019-03-06T12:46:57.545Z,11.45
2019-03-06T12:49:31.315Z,11.52
2019-03-06T12:52:04.841Z,11.64
2019-03-06T12:54:36.077Z,11.74
2019-03-06T12:57:07.629Z,11.75
2019-03-06T12:59:38.874Z,11.79
2019-03-06T13:02:10.095Z,11.67
2019-03-06T13:04:42.344Z,11.55
2019-03-06T13:07:13.610Z,11.61
2019-03-06T13:09:45.038Z,11.39
2019-03-06T13:12:16.607Z,11.39
2019-03-06T13:14:48.049Z,11.33
2019-03-06T13:17:19.306Z,11.27
2019-03-06T13:19:50.561Z,11.35
2019-03-06T13:22:21.755Z,11.37
2019-03-06T13:24:53.272Z,11.50
2019-03-06T13:27:24.559Z,11.43
2019-03-06T13:29:55.847Z,11.33
2019-03-06T13:32:28.753Z,11.32
2019-03-06T13:35:00.249Z,11.43
2019-03-06T13:37:31.574Z,11.47
2019-03-06T13:40:03.432Z,11.48
2019-03-06T13:42:35.995Z,11.33
2019-03-06T13:45:12.996Z,11.37
2019-03-06T13:47:44.401Z,11.29
2019-03-06T13:50:16.629Z,11.29
2019-03-06T13:52:51.750Z,11.35
2019-03-06T13:55:22.949Z,11.46
2019-03-06T13:57:54.406Z,11.46
2019-03-06T14:00:26.748Z,11.44
2019-03-06T14:02:58.005Z,11.37
2019-03-06T14:05:29.194Z,11.14
2019-03-06T14:08:01.007Z,11.18
2019-03-06T14:10:32.992Z,11.10
2019-03-06T14:13:04.564Z,11.06
2019-03-06T14:15:35.716Z,11.00
2019-03-06T14:18:07.052Z,10.88
2019-03-06T14:20:38.471Z,10.67
2019-03-06T14:23:09.993Z,10.54
2019-03-06T14:25:44.886Z,10.39
2019-03-06T14:28:16.163Z,10.30
2019-03-06T14:30:47.826Z,10.19
2019-03-06T14:33:19.320Z,10.23
2019-03-06T14:35:51.813Z,10.11
2019-03-06T14:38:25.031Z,10.07
2019-03-06T14:40:56.311Z,10.05
2019-03-06T14:43:27.489Z,10.07
2019-03-06T14:45:58.692Z,10.13
2019-03-06T14:48:30.020Z,10.12
2019-03-06T14:51:01.340Z,10.13
2019-03-06T14:53:32.577Z,10.10
2019-03-06T14:56:03.830Z,10.13
2019-03-06T14:58:35.194Z,10.10
2019-03-06T15:01:06.675Z,10.13
2019-03-06T15:03:38.935Z,10.14
2019-03-06T15:06:10.072Z,10.12
2019-03-06T15:08:41.447Z,10.05
2019-03-06T15:11:12.650Z,10.03
2019-03-06T15:13:43.834Z,10.04
2019-03-06T15:16:17.121Z,10.03
2019-03-06T15:18:48.376Z,9.97
2019-03-06T15:21:19.750Z,9.94
2019-03-06T15:23:51.127Z,9.90
2019-03-06T15:26:22.326Z,9.86
2019-03-06T15:28:53.767Z,9.89
2019-03-06T15:31:25.024Z,9.88
2019-03-06T15:33:56.536Z,9.82
2019-03-06T15:36:27.913Z,9.80
2019-03-06T15:38:59.242Z,9.76
2019-03-06T15:41:31.899Z,9.75
2019-03-06T15:44:03.087Z,9.78
2019-03-06T15:46:34.375Z,9.77
2019-03-06T15:49:06.118Z,9.81
2019-03-06T15:51:37.181Z,9.75
2019-03-06T15:54:10.748Z,9.75
2019-03-06T15:56:42.316Z,9.77
2019-03-06T15:59:15.174Z,9.71
2019-03-06T16:01:46.593Z,9.70
2019-03-06T16:04:17.838Z,9.74
2019-03-06T16:06:53.910Z,9.73
2019-03-06T16:09:23.062Z,9.68
2019-03-06T16:11:54.321Z,9.65
2019-03-06T16:14:25.603Z,9.58
2019-03-06T16:16:56.751Z,9.64
2019-03-06T16:19:28.032Z,9.64
2019-03-06T16:21:59.220Z,9.60
2019-03-06T16:24:31.132Z,9.59
2019-03-06T16:27:02.319Z,9.60
2019-03-06T16:29:33.552Z,9.59
2019-03-06T16:32:04.755Z,9.55
2019-03-06T16:34:36.237Z,9.53
2019-03-06T16:37:09.096Z,9.55
2019-03-06T16:39:40.628Z,9.48
2019-03-06T16:42:11.715Z,9.46
2019-03-06T16:44:42.916Z,9.43
2019-03-06T16:47:14.358Z,9.38
2019-03-06T16:49:45.759Z,9.40
2019-03-06T16:52:17.162Z,9.39
2019-03-06T16:54:48.515Z,9.43
2019-03-06T16:57:19.929Z,9.42
2019-03-06T16:59:51.252Z,9.36
2019-03-06T17:02:22.612Z,9.32
2019-03-06T17:04:54.270Z,9.29
2019-03-06T17:07:25.350Z,9.32
2019-03-06T17:09:56.813Z,9.32
2019-03-06T17:12:28.016Z,9.28
2019-03-06T17:15:00.347Z,9.29
2019-03-06T17:17:31.546Z,9.28
2019-03-06T17:20:02.647Z,9.28
2019-03-06T17:22:35.980Z,9.29
2019-03-06T17:25:08.578Z,9.35
2019-03-06T17:27:40.915Z,9.35
2019-03-06T17:30:32.319Z,9.26
2019-03-06T17:33:12.913Z,9.21
2019-03-06T17:35:44.313Z,9.17
2019-03-06T17:38:20.062Z,9.13
2019-03-06T17:40:51.287Z,9.11
2019-03-06T17:43:24.577Z,9.07
2019-03-06T17:45:55.595Z,9.02
2019-03-06T17:48:31.221Z,8.94
2019-03-06T17:51:02.509Z,8.95
2019-03-06T17:53:33.774Z,8.91
2019-03-06T17:56:05.255Z,8.87
2019-03-06T17:58:36.670Z,8.84
2019-03-06T18:01:09.555Z,8.83
2019-03-06T18:03:45.158Z,8.82
2019-03-06T18:06:16.341Z,8.81
2019-03-06T18:08:47.576Z,8.85
2019-03-06T18:11:21.699Z,8.82
2019-03-06T18:13:53.158Z,8.80
2019-03-06T18:16:24.983Z,8.77
2019-03-06T18:18:57.827Z,8.77
2019-03-06T18:21:29.213Z,8.73
2019-03-06T18:24:00.369Z,8.70
2019-03-06T18:26:32.061Z,8.69
2019-03-06T18:29:04.219Z,8.69
2019-03-06T18:31:36.332Z,8.73
2019-03-06T18:34:07.388Z,8.68
2019-03-06T18:36:41.547Z,8.68
2019-03-06T18:39:14.446Z,8.65
2019-03-06T18:41:45.720Z,8.62
2019-03-06T18:44:17.388Z,8.59
2019-03-06T18:46:48.496Z,8.55
2019-03-06T18:49:20.546Z,8.43
2019-03-06T18:51:51.798Z,8.49
2019-03-06T18:54:24.879Z,8.34
2019-03-06T18:56:56.398Z,8.25
2019-03-06T18:59:30.512Z,8.15
2019-03-06T19:02:02.203Z,8.11
2019-03-06T19:04:33.388Z,8.05
2019-03-06T19:07:04.464Z,7.93
2019-03-06T19:09:35.735Z,7.88
2019-03-06T19:12:07.603Z,7.92
2019-03-06T19:14:38.973Z,7.73
2019-03-06T19:17:10.014Z,7.60
2019-03-06T19:19:41.156Z,7.58
2019-03-06T19:22:12.346Z,7.57
2019-03-06T19:24:43.518Z,7.50
2019-03-06T19:27:14.728Z,7.50
2019-03-06T19:29:46.014Z,7.48
2019-03-06T19:32:17.348Z,7.42
2019-03-06T19:34:48.602Z,7.43
2019-03-06T19:37:23.063Z,7.38
2019-03-06T19:39:54.318Z,7.35
2019-03-06T19:42:25.656Z,7.39
2019-03-06T19:44:56.934Z,7.32
2019-03-06T19:47:29.662Z,7.33
2019-03-06T19:50:00.832Z,7.33
2019-03-06T19:52:32.010Z,7.21
2019-03-06T19:55:03.212Z,7.17
2019-03-06T19:57:37.741Z,7.11
2019-03-06T20:00:15.983Z,7.00
2019-03-06T20:02:50.681Z,6.95
2019-03-06T20:05:22.561Z,6.88
2019-03-06T20:07:55.308Z,6.83
2019-03-06T20:10:26.512Z,6.77
2019-03-06T20:12:57.844Z,6.75
2019-03-06T20:15:29.022Z,6.68
2019-03-06T20:18:00.178Z,6.58
2019-03-06T20:20:38.003Z,6.49
2019-03-06T20:23:09.269Z,6.38
2019-03-06T20:25:40.625Z,6.36
2019-03-06T20:28:12.051Z,6.36
2019-03-06T20:30:46.929Z,6.31
2019-03-06T20:33:19.320Z,6.28
2019-03-06T20:35:50.726Z,6.19
2019-03-06T20:38:21.999Z,6.16
2019-03-06T20:40:54.201Z,6.12
2019-03-06T20:43:25.548Z,5.99
2019-03-06T20:45:56.846Z,5.94
2019-03-06T20:48:28.830Z,5.89
2019-03-06T20:51:00.907Z,5.83
2019-03-06T20:53:35.205Z,5.76
2019-03-06T20:56:06.433Z,5.62
2019-03-06T20:58:37.696Z,5.49
2019-03-06T21:01:09.967Z,5.38
2019-03-06T21:03:41.431Z,5.38
2019-03-06T21:06:12.639Z,5.30
2019-03-06T21:08:43.951Z,5.29
2019-03-06T21:11:15.286Z,5.32
2019-03-06T21:13:46.558Z,5.29
2019-03-06T21:16:17.747Z,5.18
2019-03-06T21:18:48.920Z,5.17
2019-03-06T21:21:20.129Z,5.15
2019-03-06T21:23:51.257Z,5.18
2019-03-06T21:26:22.597Z,5.06
2019-03-06T21:28:54.043Z,4.93
2019-03-06T21:31:25.305Z,4.89
2019-03-06T21:33:56.539Z,4.89
2019-03-06T21:36:27.740Z,4.81
2019-03-06T21:38:59.097Z,4.79
2019-03-06T21:41:31.607Z,4.95
2019-03-06T21:44:03.084Z,5.00
2019-03-06T21:46:34.205Z,5.27
2019-03-06T21:49:05.495Z,5.40
2019-03-06T21:51:36.691Z,5.35
2019-03-06T21:54:07.885Z,5.30
2019-03-06T21:56:39.436Z,5.32
2019-03-06T21:59:10.641Z,5.48
2019-03-06T22:01:41.959Z,5.44
2019-03-06T22:04:13.165Z,5.28
2019-03-06T22:06:44.410Z,5.20
2019-03-06T22:09:15.650Z,5.17
2019-03-06T22:11:46.944Z,4.98
2019-03-06T22:14:21.024Z,5.02
2019-03-06T22:16:51.641Z,4.97
2019-03-06T22:19:22.961Z,4.85
2019-03-06T22:21:54.342Z,4.77
2019-03-06T22:24:25.490Z,4.78
2019-03-06T22:26:59.276Z,4.66
2019-03-06T22:29:30.498Z,4.59
2019-03-06T22:32:02.597Z,4.59
2019-03-06T22:34:33.741Z,4.60
2019-03-06T22:37:04.890Z,4.58
2019-03-06T22:39:38.283Z,4.59
2019-03-06T22:42:09.679Z,4.48
2019-03-06T22:44:40.916Z,4.46
2019-03-06T22:47:12.408Z,4.45
2019-03-06T22:49:43.457Z,4.52
2019-03-06T22:52:14.597Z,4.43
2019-03-06T22:54:45.905Z,4.43
2019-03-06T22:57:17.214Z,4.47
2019-03-06T22:59:48.392Z,4.46
2019-03-06T23:02:21.484Z,4.45
2019-03-06T23:04:52.641Z,4.40
2019-03-06T23:07:23.974Z,4.29
2019-03-06T23:09:55.171Z,4.22
2019-03-06T23:12:26.353Z,4.22
2019-03-06T23:14:57.815Z,4.24
2019-03-06T23:17:28.942Z,4.22
2019-03-06T23:20:00.213Z,4.26
2019-03-06T23:22:31.714Z,4.26
2019-03-06T23:25:03.404Z,4.22
2019-03-06T23:27:34.751Z,4.18
2019-03-06T23:30:14.172Z,4.16
2019-03-06T23:32:49.364Z,4.07
2019-03-06T23:35:20.499Z,4.04
2019-03-06T23:37:51.703Z,3.95
2019-03-06T23:40:22.843Z,3.92
2019-03-06T23:42:53.908Z,3.84
2019-03-06T23:45:25.887Z,3.79
2019-03-06T23:47:57.065Z,3.75
2019-03-06T23:50:28.132Z,3.72
2019-03-06T23:53:10.365Z,3.70
2019-03-06T23:55:41.826Z,3.63
2019-03-06T23:58:12.953Z,3.66
